Etusivu
METAR-TAF:

METAR-TAF

Lentoasemat :

Vlissingen, Alankomaat

Leveyspiiri: 51-27N, Pituuspiiri: 3-36E, korkeus merenpinnasta: 10 m

Tämänhetkinen sää

Tämä raportti tehtiin 40 minuuttia sitten, kello 02.55 UTC
Tuuli 8 kn lounaasta
Lämpötila 5°C
Kosteus 87%
Ilmanpaine 1025 hPa
Näkyvyys 10 km tai enemmän

METAR: EHFS 190255Z AUTO 23008KT 9999 NCD 05/03 Q1025 W///H///

Aika: 04:35 (03:35 UTC)


TAF: puuttuu

Säähavainnot ja -ennusteet yli 4000 lentoasemalta (METAR- ja TAF-raportit).

Käytössä olevat sääasemat on merkitty karttaan keltaisilla ja punaisilla pisteillä.

Aseta hiiri pisteen päälle nähdäksesi sääaseman nimen.

Klikkaa sitten nähdäksesi säähavainnot ja -ennusteet.

Kartan vaihtaminen: klikkaa mustalla rastilla varustettuja vihreitä pisteitä, niin voit zoomata sisään; viivalla varustettua vihreää pistettä, niin voit zoomata ulos tai vihreitä nuolia, niin pääset viereisille kartoille.


METAR-TAF: